createdAt,value
2023-02-26T00:00:24.628Z,5.38
2023-02-26T00:01:28.049Z,5.13
2023-02-26T00:02:29.595Z,5.25
2023-02-26T00:03:31.150Z,5.26
2023-02-26T00:04:32.800Z,5.24
2023-02-26T00:05:34.438Z,5.22
2023-02-26T00:06:37.288Z,5.24
2023-02-26T00:07:39.195Z,5.16
2023-02-26T00:08:41.165Z,5.19
2023-02-26T00:09:42.740Z,5.16
2023-02-26T00:10:44.251Z,5.16
2023-02-26T00:11:46.429Z,5.16
2023-02-26T00:12:48.114Z,5.13
2023-02-26T00:13:50.246Z,5.20
2023-02-26T00:14:52.304Z,5.32
2023-02-26T00:15:56.781Z,5.26
2023-02-26T00:17:09.659Z,5.18
2023-02-26T00:18:13.843Z,5.23
2023-02-26T00:19:15.391Z,5.23
2023-02-26T00:20:17.347Z,5.18
2023-02-26T00:21:20.002Z,5.14
2023-02-26T00:22:21.834Z,5.11
2023-02-26T00:23:24.562Z,5.12
2023-02-26T00:24:26.105Z,5.05
2023-02-26T00:25:27.853Z,5.00
2023-02-26T00:26:30.649Z,4.96
2023-02-26T00:27:32.441Z,5.36
2023-02-26T00:28:33.956Z,5.55
2023-02-26T00:29:35.369Z,5.63
2023-02-26T00:30:36.930Z,5.57
2023-02-26T00:31:38.775Z,5.24
2023-02-26T00:32:40.875Z,5.04
2023-02-26T00:33:43.346Z,5.00
2023-02-26T00:34:46.373Z,5.00
2023-02-26T00:35:47.951Z,4.92
2023-02-26T00:37:22.014Z,4.89
2023-02-26T00:38:23.851Z,5.01
2023-02-26T00:39:37.035Z,4.87
2023-02-26T00:40:43.771Z,4.93
2023-02-26T00:41:45.597Z,5.00
2023-02-26T00:42:47.394Z,5.00
2023-02-26T00:43:49.249Z,5.01
2023-02-26T00:44:51.064Z,5.02
2023-02-26T00:46:10.495Z,4.99
2023-02-26T00:47:33.662Z,5.06
2023-02-26T00:48:54.825Z,5.04
2023-02-26T00:50:16.965Z,5.03
2023-02-26T00:51:41.593Z,4.95
2023-02-26T00:52:58.483Z,4.87
2023-02-26T00:54:22.093Z,4.90
2023-02-26T00:55:23.705Z,5.00
2023-02-26T00:56:25.456Z,4.91
2023-02-26T00:57:27.258Z,4.85
2023-02-26T00:58:28.787Z,4.83
2023-02-26T00:59:30.312Z,4.81
2023-02-26T01:00:31.850Z,4.88
2023-02-26T01:01:33.425Z,4.87
2023-02-26T01:02:35.779Z,4.87
2023-02-26T01:03:37.527Z,4.88
2023-02-26T01:04:39.642Z,4.89
2023-02-26T01:05:41.327Z,4.93
2023-02-26T01:06:45.335Z,4.91
2023-02-26T01:08:02.550Z,4.85
2023-02-26T01:09:22.499Z,4.92
2023-02-26T01:10:24.265Z,4.78
2023-02-26T01:11:25.995Z,4.63
2023-02-26T01:12:27.669Z,4.48
2023-02-26T01:13:29.393Z,4.45
2023-02-26T01:14:32.298Z,4.51
2023-02-26T01:15:34.210Z,4.63
2023-02-26T01:16:41.341Z,4.55
2023-02-26T01:17:56.030Z,4.45
2023-02-26T01:19:04.168Z,4.66
2023-02-26T01:20:17.032Z,4.65
2023-02-26T01:21:20.404Z,4.69
2023-02-26T01:22:54.189Z,4.67
2023-02-26T01:23:56.052Z,4.80
2023-02-26T01:25:07.251Z,4.65
2023-02-26T01:26:15.563Z,4.64
2023-02-26T01:27:17.203Z,4.64
2023-02-26T01:28:19.406Z,4.64
2023-02-26T01:29:21.160Z,4.63
2023-02-26T01:30:23.361Z,4.63
2023-02-26T01:32:02.475Z,4.77
2023-02-26T01:33:19.643Z,4.86
2023-02-26T01:34:39.720Z,4.89
2023-02-26T01:35:54.653Z,4.89
2023-02-26T01:37:34.514Z,4.99
2023-02-26T01:38:42.912Z,4.66
2023-02-26T01:39:47.619Z,4.31
2023-02-26T01:41:13.585Z,4.41
2023-02-26T01:42:25.840Z,4.50
2023-02-26T01:43:32.856Z,4.51
2023-02-26T01:44:38.884Z,4.52
2023-02-26T01:45:52.856Z,4.51
2023-02-26T01:46:57.283Z,4.66
2023-02-26T01:48:02.430Z,4.63
2023-02-26T01:49:04.019Z,4.65
2023-02-26T01:50:16.443Z,4.60
2023-02-26T01:51:18.703Z,4.58
2023-02-26T01:52:32.020Z,4.62
2023-02-26T01:53:33.599Z,4.68
2023-02-26T01:54:36.900Z,4.55
2023-02-26T01:55:38.475Z,4.45
2023-02-26T01:56:40.173Z,4.54
2023-02-26T01:57:41.732Z,4.54
2023-02-26T01:58:43.275Z,4.51
2023-02-26T01:59:49.041Z,4.42
2023-02-26T02:00:52.145Z,4.54
2023-02-26T02:01:56.049Z,4.59
2023-02-26T02:02:58.004Z,4.61
2023-02-26T02:04:00.143Z,4.65
2023-02-26T02:05:07.262Z,4.59
2023-02-26T02:06:12.143Z,4.65
2023-02-26T02:07:13.836Z,4.62
2023-02-26T02:08:15.526Z,4.57
2023-02-26T02:09:17.123Z,4.60
2023-02-26T02:10:19.093Z,4.58
2023-02-26T02:11:20.669Z,4.54
2023-02-26T02:12:40.557Z,4.53
2023-02-26T02:13:56.004Z,4.57
2023-02-26T02:15:09.592Z,4.56
2023-02-26T02:16:18.038Z,4.52
2023-02-26T02:17:29.455Z,4.34
2023-02-26T02:19:06.588Z,4.27
2023-02-26T02:20:32.252Z,4.52
2023-02-26T02:21:52.431Z,4.33
2023-02-26T02:22:59.827Z,4.25
2023-02-26T02:24:04.261Z,4.22
2023-02-26T02:25:36.793Z,4.19
2023-02-26T02:26:56.316Z,4.27
2023-02-26T02:28:30.897Z,4.24
2023-02-26T02:29:53.672Z,4.33
2023-02-26T02:31:17.973Z,4.32
2023-02-26T02:32:52.484Z,4.34
2023-02-26T02:34:13.996Z,4.39
2023-02-26T02:35:18.071Z,4.65
2023-02-26T02:36:35.273Z,4.49
2023-02-26T02:37:58.871Z,4.37
2023-02-26T02:39:23.040Z,4.45
2023-02-26T02:40:28.270Z,4.46
2023-02-26T02:41:34.501Z,4.48
2023-02-26T02:42:40.003Z,4.40
2023-02-26T02:43:41.954Z,4.35
2023-02-26T02:44:51.501Z,4.29
2023-02-26T02:46:07.630Z,4.26
2023-02-26T02:47:09.783Z,4.33
2023-02-26T02:48:25.424Z,4.29
2023-02-26T02:49:37.074Z,4.35
2023-02-26T02:50:42.101Z,4.27
2023-02-26T02:52:06.922Z,4.28
2023-02-26T02:53:15.608Z,4.30
2023-02-26T02:54:23.843Z,4.11
2023-02-26T02:55:27.954Z,4.15
2023-02-26T02:56:33.822Z,4.12
2023-02-26T02:57:36.591Z,4.00
2023-02-26T02:58:41.840Z,3.99
2023-02-26T02:59:45.414Z,3.97
2023-02-26T03:00:50.135Z,4.02
2023-02-26T03:01:57.153Z,4.03
2023-02-26T03:03:08.087Z,4.05
2023-02-26T03:04:11.576Z,4.08
2023-02-26T03:05:13.744Z,4.02
2023-02-26T03:06:15.253Z,4.04
2023-02-26T03:07:16.957Z,4.07
2023-02-26T03:08:24.764Z,4.04
2023-02-26T03:09:26.262Z,4.19
2023-02-26T03:10:27.987Z,4.19
2023-02-26T03:11:29.641Z,4.18
2023-02-26T03:12:31.715Z,4.08
2023-02-26T03:13:33.233Z,4.01
2023-02-26T03:14:34.791Z,4.00
2023-02-26T03:15:41.838Z,3.97
2023-02-26T03:17:17.685Z,4.15
2023-02-26T03:19:02.663Z,4.26
2023-02-26T03:20:21.465Z,4.17
2023-02-26T03:21:41.673Z,4.16
2023-02-26T03:23:01.928Z,4.13
2023-02-26T03:24:40.893Z,3.86
2023-02-26T03:25:47.491Z,3.93
2023-02-26T03:26:56.950Z,3.92
2023-02-26T03:28:20.318Z,3.95
2023-02-26T03:29:27.613Z,4.09
2023-02-26T03:30:52.388Z,4.14
2023-02-26T03:31:58.019Z,4.13
2023-02-26T03:33:04.893Z,4.14
2023-02-26T03:34:15.437Z,4.11
2023-02-26T03:35:18.793Z,4.06
2023-02-26T03:36:27.753Z,4.01
2023-02-26T03:37:35.909Z,3.93
2023-02-26T03:38:51.788Z,4.03
2023-02-26T03:39:55.695Z,3.97
2023-02-26T03:41:03.755Z,3.77
2023-02-26T03:42:18.882Z,3.70
2023-02-26T03:43:36.644Z,3.81
2023-02-26T03:44:47.534Z,3.91
2023-02-26T03:45:50.122Z,3.88
2023-02-26T03:46:56.354Z,3.83
2023-02-26T03:47:58.416Z,3.89
2023-02-26T03:49:00.464Z,3.92
2023-02-26T03:50:16.807Z,3.96
2023-02-26T03:51:18.806Z,3.89
2023-02-26T03:52:21.960Z,3.72
2023-02-26T03:53:26.089Z,3.61
2023-02-26T03:54:31.213Z,3.65
2023-02-26T03:55:38.835Z,3.65
2023-02-26T03:56:43.806Z,3.66
2023-02-26T03:57:45.393Z,3.50
2023-02-26T03:58:46.884Z,3.55
2023-02-26T03:59:48.402Z,3.43
2023-02-26T04:00:55.134Z,3.42
2023-02-26T04:02:02.731Z,3.53
2023-02-26T04:03:14.939Z,3.59
2023-02-26T04:04:33.726Z,3.70
2023-02-26T04:05:36.225Z,3.92
2023-02-26T04:06:38.108Z,3.93
2023-02-26T04:07:39.878Z,3.92
2023-02-26T04:08:41.396Z,3.98
2023-02-26T04:09:44.405Z,3.98
2023-02-26T04:10:56.428Z,3.87
2023-02-26T04:11:58.275Z,3.92
2023-02-26T04:13:00.801Z,3.87
2023-02-26T04:14:02.343Z,3.95
2023-02-26T04:15:06.194Z,3.96
2023-02-26T04:16:07.691Z,3.98
2023-02-26T04:17:09.185Z,3.92
2023-02-26T04:18:10.719Z,3.98
2023-02-26T04:19:12.705Z,4.05
2023-02-26T04:20:14.810Z,3.94
2023-02-26T04:21:17.763Z,3.86
2023-02-26T04:22:19.268Z,3.95
2023-02-26T04:23:20.782Z,3.99
2023-02-26T04:24:22.367Z,3.92
2023-02-26T04:25:23.872Z,3.86
2023-02-26T04:26:25.744Z,4.02
2023-02-26T04:27:27.429Z,4.05
2023-02-26T04:28:30.084Z,3.94
2023-02-26T04:29:31.575Z,4.05
2023-02-26T04:30:33.067Z,4.04
2023-02-26T04:31:34.744Z,4.05
2023-02-26T04:32:36.421Z,4.11
2023-02-26T04:33:38.056Z,4.15
2023-02-26T04:34:39.631Z,4.10
2023-02-26T04:35:41.132Z,4.26
2023-02-26T04:36:42.963Z,4.28
2023-02-26T04:37:44.647Z,4.34
2023-02-26T04:38:46.223Z,4.28
2023-02-26T04:39:47.723Z,4.23
2023-02-26T04:40:50.597Z,4.21
2023-02-26T04:41:52.171Z,4.26
2023-02-26T04:42:53.776Z,4.18
2023-02-26T04:43:55.274Z,4.25
2023-02-26T04:44:56.826Z,4.18
2023-02-26T04:45:58.436Z,4.07
2023-02-26T04:47:00.090Z,4.13
2023-02-26T04:48:01.664Z,4.19
2023-02-26T04:49:03.212Z,4.14
2023-02-26T04:50:05.174Z,3.91
2023-02-26T04:51:07.015Z,3.74
2023-02-26T04:52:08.562Z,3.67
2023-02-26T04:53:10.130Z,3.69
2023-02-26T04:54:11.645Z,3.66
2023-02-26T04:55:13.152Z,3.67
2023-02-26T04:56:15.144Z,3.83
2023-02-26T04:57:16.774Z,3.94
2023-02-26T04:58:18.723Z,3.95
2023-02-26T04:59:20.239Z,3.99
2023-02-26T05:00:22.205Z,4.07
2023-02-26T05:01:24.110Z,4.16
2023-02-26T05:02:25.684Z,4.09
2023-02-26T05:03:27.195Z,4.05
2023-02-26T05:04:28.791Z,4.11
2023-02-26T05:05:30.303Z,4.18
2023-02-26T05:06:31.849Z,4.10
2023-02-26T05:07:33.370Z,4.10
2023-02-26T05:08:34.889Z,4.20
2023-02-26T05:09:36.410Z,4.23
2023-02-26T05:10:37.962Z,4.06
2023-02-26T05:11:39.497Z,3.95
2023-02-26T05:12:41.012Z,3.81
2023-02-26T05:13:42.530Z,3.75
2023-02-26T05:14:44.029Z,3.74
2023-02-26T05:15:45.565Z,3.86
2023-02-26T05:16:47.121Z,3.69
2023-02-26T05:17:48.643Z,3.81
2023-02-26T05:18:50.186Z,3.92
2023-02-26T05:19:51.789Z,4.02
2023-02-26T05:20:54.413Z,4.04
2023-02-26T05:21:55.966Z,4.05
2023-02-26T05:22:57.476Z,4.05
2023-02-26T05:23:59.120Z,4.10
2023-02-26T05:25:00.649Z,4.20
2023-02-26T05:26:02.714Z,4.29
2023-02-26T05:27:04.232Z,4.37
2023-02-26T05:28:05.734Z,4.37
2023-02-26T05:29:07.276Z,4.39
2023-02-26T05:30:09.834Z,4.33
2023-02-26T05:31:12.974Z,4.41
2023-02-26T05:32:14.640Z,4.49
2023-02-26T05:33:16.230Z,4.51
2023-02-26T05:34:17.798Z,4.42
2023-02-26T05:35:19.401Z,4.49
2023-02-26T05:36:20.942Z,4.46
2023-02-26T05:37:22.510Z,4.42
2023-02-26T05:38:24.018Z,4.38
2023-02-26T05:39:25.549Z,4.21
2023-02-26T05:40:27.479Z,4.08
2023-02-26T05:41:29.014Z,4.04
2023-02-26T05:42:30.520Z,4.08
2023-02-26T05:43:33.562Z,4.07
2023-02-26T05:44:35.524Z,4.39
2023-02-26T05:45:37.030Z,4.30
2023-02-26T05:46:38.641Z,4.29
2023-02-26T05:47:40.237Z,4.28
2023-02-26T05:48:42.451Z,4.35
2023-02-26T05:49:45.051Z,4.38
2023-02-26T05:50:47.534Z,4.29
2023-02-26T05:51:49.048Z,4.26
2023-02-26T05:52:50.674Z,4.19
2023-02-26T05:53:52.179Z,4.28
2023-02-26T05:54:53.766Z,4.24
2023-02-26T05:55:55.344Z,4.30
2023-02-26T05:56:56.969Z,4.39
2023-02-26T05:57:58.537Z,4.45
2023-02-26T05:59:00.092Z,4.50
2023-02-26T06:00:01.770Z,4.47
2023-02-26T06:01:03.399Z,4.60
2023-02-26T06:02:04.922Z,4.63
2023-02-26T06:03:06.501Z,4.65
2023-02-26T06:04:08.123Z,4.64
2023-02-26T06:05:09.970Z,4.68
2023-02-26T06:06:12.476Z,4.68
2023-02-26T06:07:14.088Z,4.64
2023-02-26T06:08:16.557Z,4.72
2023-02-26T06:09:18.092Z,4.74
2023-02-26T06:10:20.073Z,4.78
2023-02-26T06:11:22.024Z,4.76
2023-02-26T06:12:23.586Z,4.59
2023-02-26T06:13:25.229Z,4.45
2023-02-26T06:14:26.813Z,4.33
2023-02-26T06:15:28.729Z,4.33
2023-02-26T06:16:30.317Z,4.22
2023-02-26T06:17:31.821Z,4.16
2023-02-26T06:18:33.781Z,4.15
2023-02-26T06:19:35.337Z,4.15
2023-02-26T06:20:37.261Z,4.09
2023-02-26T06:21:38.743Z,4.13
2023-02-26T06:22:40.359Z,4.04
2023-02-26T06:23:41.834Z,3.90
2023-02-26T06:24:43.450Z,3.93
2023-02-26T06:25:45.398Z,3.95
2023-02-26T06:26:46.902Z,3.98
2023-02-26T06:27:48.408Z,3.91
2023-02-26T06:28:49.920Z,3.83
2023-02-26T06:29:51.798Z,3.98
2023-02-26T06:30:53.865Z,4.10
2023-02-26T06:31:55.644Z,4.25
2023-02-26T06:32:57.199Z,4.31
2023-02-26T06:33:58.724Z,4.39
2023-02-26T06:35:00.566Z,4.34
2023-02-26T06:36:02.487Z,4.36
2023-02-26T06:37:04.004Z,4.31
2023-02-26T06:38:05.542Z,4.38
2023-02-26T06:39:08.036Z,4.41
2023-02-26T06:40:10.872Z,4.38
2023-02-26T06:41:12.528Z,4.21
2023-02-26T06:42:14.025Z,4.37
2023-02-26T06:43:15.783Z,4.39
2023-02-26T06:44:17.434Z,4.46
2023-02-26T06:45:19.017Z,4.09
2023-02-26T06:46:20.598Z,4.37
2023-02-26T06:47:22.776Z,4.36
2023-02-26T06:48:24.413Z,4.39
2023-02-26T06:49:26.046Z,4.40
2023-02-26T06:50:27.607Z,4.45
2023-02-26T06:51:29.272Z,4.60
2023-02-26T06:52:30.841Z,4.65
2023-02-26T06:53:32.463Z,4.59
2023-02-26T06:54:34.394Z,4.60
2023-02-26T06:55:35.925Z,4.59
2023-02-26T06:56:37.422Z,4.32
2023-02-26T06:57:38.935Z,4.28
2023-02-26T06:58:40.430Z,4.37
2023-02-26T06:59:41.991Z,4.41
2023-02-26T07:00:43.608Z,4.54
2023-02-26T07:01:45.142Z,4.51
2023-02-26T07:02:46.725Z,4.53
2023-02-26T07:03:48.266Z,4.57
2023-02-26T07:04:49.833Z,4.53
2023-02-26T07:05:51.354Z,4.58
2023-02-26T07:06:52.853Z,4.65
2023-02-26T07:07:54.540Z,4.72
2023-02-26T07:08:56.168Z,4.67
2023-02-26T07:09:57.752Z,4.71
2023-02-26T07:10:59.238Z,4.59
2023-02-26T07:12:00.734Z,4.35
2023-02-26T07:13:02.269Z,4.33
2023-02-26T07:14:03.797Z,4.43
2023-02-26T07:15:06.312Z,4.50
2023-02-26T07:16:08.147Z,4.56
2023-02-26T07:17:09.913Z,4.71
2023-02-26T07:18:11.532Z,4.79
2023-02-26T07:19:13.105Z,4.59
2023-02-26T07:20:14.630Z,4.56
2023-02-26T07:21:16.137Z,4.54
2023-02-26T07:22:20.887Z,4.62
2023-02-26T07:23:23.343Z,4.69
2023-02-26T07:24:25.578Z,4.67
2023-02-26T07:25:27.278Z,4.44
2023-02-26T07:26:28.820Z,4.39
2023-02-26T07:27:30.807Z,4.38
2023-02-26T07:28:32.278Z,4.33
2023-02-26T07:29:33.848Z,4.27
2023-02-26T07:30:35.458Z,4.21
2023-02-26T07:31:37.246Z,4.29
2023-02-26T07:32:38.984Z,4.25
2023-02-26T07:33:41.330Z,4.20
2023-02-26T07:34:42.906Z,4.29
2023-02-26T07:35:44.395Z,4.40
2023-02-26T07:36:45.883Z,4.40
2023-02-26T07:37:47.414Z,4.46
2023-02-26T07:38:49.242Z,4.56
2023-02-26T07:39:50.907Z,4.63
2023-02-26T07:40:55.396Z,4.59
2023-02-26T07:41:56.920Z,4.64
2023-02-26T07:42:58.412Z,4.69
2023-02-26T07:44:00.301Z,4.72
2023-02-26T07:45:02.529Z,4.71
2023-02-26T07:46:04.282Z,4.60
2023-02-26T07:47:05.805Z,4.56
2023-02-26T07:48:07.371Z,4.60
2023-02-26T07:49:10.197Z,4.75
2023-02-26T07:50:11.982Z,4.72
2023-02-26T07:51:13.470Z,4.77
2023-02-26T07:52:14.996Z,4.77
2023-02-26T07:53:16.909Z,4.91
2023-02-26T07:54:18.400Z,4.92
2023-02-26T07:55:20.194Z,4.95
2023-02-26T07:56:21.673Z,5.06
2023-02-26T07:57:23.175Z,5.22
2023-02-26T07:58:24.663Z,5.20
2023-02-26T07:59:26.151Z,5.21
2023-02-26T08:00:27.650Z,5.41
2023-02-26T08:01:29.208Z,5.28
2023-02-26T08:02:30.742Z,5.34
2023-02-26T08:03:32.393Z,5.28
2023-02-26T08:04:34.080Z,5.26
2023-02-26T08:05:35.612Z,5.32
2023-02-26T08:06:37.189Z,5.42
2023-02-26T08:07:38.725Z,5.56
2023-02-26T08:08:40.598Z,5.46
2023-02-26T08:09:42.149Z,5.36
2023-02-26T08:10:43.704Z,5.19
2023-02-26T08:11:45.245Z,4.97
2023-02-26T08:12:46.752Z,5.12
2023-02-26T08:13:48.319Z,5.21
2023-02-26T08:14:49.849Z,5.25
2023-02-26T08:15:51.515Z,5.25
2023-02-26T08:16:53.458Z,5.20
2023-02-26T08:17:55.040Z,5.26
2023-02-26T08:18:56.582Z,5.38
2023-02-26T08:19:58.117Z,5.38
2023-02-26T08:20:59.674Z,5.34
2023-02-26T08:22:01.301Z,5.29
2023-02-26T08:23:02.850Z,5.30
2023-02-26T08:24:04.621Z,5.13
2023-02-26T08:25:06.603Z,5.22
2023-02-26T08:26:09.201Z,5.28
2023-02-26T08:27:12.675Z,5.41
2023-02-26T08:28:15.033Z,5.41
2023-02-26T08:29:16.590Z,5.40
2023-02-26T08:30:18.450Z,5.70
2023-02-26T08:31:20.195Z,5.81
2023-02-26T08:32:23.046Z,5.98
2023-02-26T08:33:25.804Z,6.19
2023-02-26T08:34:27.441Z,6.37
2023-02-26T08:35:29.045Z,6.57
2023-02-26T08:36:31.296Z,6.76
2023-02-26T08:37:32.858Z,6.84
2023-02-26T08:38:34.369Z,6.79
2023-02-26T08:39:38.342Z,6.73
2023-02-26T08:40:39.899Z,6.70
2023-02-26T08:41:41.419Z,6.67
2023-02-26T08:42:42.965Z,6.64
2023-02-26T08:43:44.526Z,6.59
2023-02-26T08:44:46.983Z,6.46
2023-02-26T08:45:48.728Z,6.42
2023-02-26T08:46:50.244Z,6.57
2023-02-26T08:47:57.019Z,6.85
2023-02-26T08:48:58.977Z,6.97
2023-02-26T08:50:00.507Z,7.21
2023-02-26T08:51:02.181Z,7.02
2023-02-26T08:52:03.726Z,6.92
2023-02-26T08:53:05.592Z,7.03
2023-02-26T08:54:07.305Z,6.92
2023-02-26T08:55:09.151Z,6.63
2023-02-26T08:56:10.691Z,6.43
2023-02-26T08:57:12.304Z,6.30
2023-02-26T08:58:14.036Z,6.27
2023-02-26T08:59:15.622Z,6.27
2023-02-26T09:00:18.564Z,6.15
2023-02-26T09:01:20.054Z,6.31
2023-02-26T09:02:21.554Z,5.90
2023-02-26T09:03:23.418Z,5.62
2023-02-26T09:04:26.916Z,5.63
2023-02-26T09:05:29.203Z,5.77
2023-02-26T09:06:30.708Z,5.88
2023-02-26T09:07:32.268Z,5.78
2023-02-26T09:08:36.825Z,5.67
2023-02-26T09:09:38.315Z,5.69
2023-02-26T09:10:41.137Z,5.67
2023-02-26T09:11:42.775Z,5.74
2023-02-26T09:12:44.266Z,5.75
2023-02-26T09:13:46.114Z,5.72
2023-02-26T09:14:47.706Z,5.33
2023-02-26T09:15:49.434Z,5.22
2023-02-26T09:16:51.405Z,5.05
2023-02-26T09:17:53.360Z,5.24
2023-02-26T09:18:55.060Z,5.34
2023-02-26T09:19:56.868Z,5.48
2023-02-26T09:20:58.338Z,5.58
2023-02-26T09:21:59.831Z,5.62
2023-02-26T09:23:01.480Z,5.82
2023-02-26T09:24:03.178Z,5.74
2023-02-26T09:25:05.118Z,5.88
2023-02-26T09:26:08.864Z,5.67
2023-02-26T09:27:10.420Z,5.40
2023-02-26T09:28:11.995Z,5.02
2023-02-26T09:29:14.510Z,4.86
2023-02-26T09:30:16.195Z,5.20
2023-02-26T09:31:17.939Z,5.23
2023-02-26T09:32:19.853Z,5.25
2023-02-26T09:33:21.927Z,5.22
2023-02-26T09:34:23.416Z,5.43
2023-02-26T09:35:25.041Z,5.32
2023-02-26T09:36:27.597Z,5.28
2023-02-26T09:37:29.460Z,5.33
2023-02-26T09:38:31.288Z,5.38
2023-02-26T09:39:32.880Z,5.48
2023-02-26T09:40:48.281Z,5.73
2023-02-26T09:41:50.344Z,5.94
2023-02-26T09:43:06.575Z,5.97
2023-02-26T09:44:13.942Z,5.87
2023-02-26T09:45:34.145Z,5.70
2023-02-26T09:46:59.493Z,5.67
2023-02-26T09:48:01.863Z,5.69
2023-02-26T09:49:14.018Z,5.44
2023-02-26T09:50:30.549Z,5.43
2023-02-26T09:51:32.035Z,5.67
2023-02-26T09:52:41.841Z,5.58
2023-02-26T09:53:44.502Z,5.50
2023-02-26T09:54:51.724Z,5.41
2023-02-26T09:55:55.963Z,5.03
2023-02-26T09:56:59.262Z,5.20
2023-02-26T09:58:05.409Z,4.95
2023-02-26T09:59:09.288Z,5.06
2023-02-26T10:00:30.985Z,5.16
2023-02-26T10:01:35.946Z,4.85
2023-02-26T10:02:45.704Z,4.82
2023-02-26T10:04:20.457Z,4.62
2023-02-26T10:05:46.521Z,4.78
2023-02-26T10:07:24.032Z,5.04
2023-02-26T10:08:28.986Z,5.18
2023-02-26T10:09:52.121Z,5.10
2023-02-26T10:11:02.270Z,5.20
2023-02-26T10:12:14.988Z,5.04
2023-02-26T10:13:26.210Z,5.07
2023-02-26T10:14:31.814Z,4.81
2023-02-26T10:15:38.191Z,4.93
2023-02-26T10:16:41.585Z,5.13
2023-02-26T10:17:49.060Z,4.98
2023-02-26T10:18:54.632Z,5.10
2023-02-26T10:20:00.543Z,5.16
2023-02-26T10:21:20.724Z,5.25
2023-02-26T10:22:28.217Z,5.36
2023-02-26T10:23:39.364Z,5.31
2023-02-26T10:24:43.303Z,5.37
2023-02-26T10:25:54.439Z,5.39
2023-02-26T10:27:03.288Z,5.63
2023-02-26T10:28:41.826Z,5.75
2023-02-26T10:29:56.904Z,5.55
2023-02-26T10:31:03.604Z,5.64
2023-02-26T10:32:47.204Z,5.72
2023-02-26T10:34:09.284Z,5.66
2023-02-26T10:35:15.926Z,5.50
2023-02-26T10:36:33.190Z,5.28
2023-02-26T10:38:03.008Z,5.49
2023-02-26T10:39:20.575Z,5.31
2023-02-26T10:40:24.923Z,5.47
2023-02-26T10:41:28.342Z,5.63
2023-02-26T10:42:33.970Z,5.62
2023-02-26T10:43:42.645Z,5.34
2023-02-26T10:45:09.322Z,5.50
2023-02-26T10:46:29.878Z,5.59
2023-02-26T10:47:53.723Z,5.44
2023-02-26T10:48:59.762Z,5.44
2023-02-26T10:50:05.860Z,5.61
2023-02-26T10:51:15.493Z,5.69
2023-02-26T10:52:18.752Z,5.50
2023-02-26T10:53:21.259Z,5.55
2023-02-26T10:54:29.784Z,5.40
2023-02-26T10:55:41.915Z,5.72
2023-02-26T10:56:43.473Z,5.72
2023-02-26T10:57:49.305Z,5.71
2023-02-26T10:58:51.524Z,5.79
2023-02-26T10:59:53.090Z,5.79
2023-02-26T11:00:55.447Z,5.83
2023-02-26T11:01:56.989Z,5.93
2023-02-26T11:02:58.576Z,5.92
2023-02-26T11:04:08.271Z,5.97
2023-02-26T11:05:16.649Z,6.14
2023-02-26T11:06:22.910Z,6.11
2023-02-26T11:07:25.058Z,6.33
2023-02-26T11:08:46.191Z,6.46
2023-02-26T11:09:47.731Z,6.45
2023-02-26T11:10:55.366Z,6.43
2023-02-26T11:12:04.834Z,6.36
2023-02-26T11:13:06.378Z,6.65
2023-02-26T11:14:08.627Z,6.69
2023-02-26T11:15:23.191Z,6.42
2023-02-26T11:16:24.865Z,6.60
2023-02-26T11:17:29.426Z,6.50
2023-02-26T11:18:41.903Z,6.59
2023-02-26T11:19:59.269Z,6.46
2023-02-26T11:21:00.796Z,6.53
2023-02-26T11:22:03.502Z,6.56
2023-02-26T11:23:12.990Z,6.60
2023-02-26T11:24:19.836Z,6.79
2023-02-26T11:25:23.799Z,6.88
2023-02-26T11:26:31.173Z,6.93
2023-02-26T11:27:36.135Z,7.21
2023-02-26T11:28:44.008Z,7.19
2023-02-26T11:29:53.509Z,7.15
2023-02-26T11:30:57.335Z,6.60
2023-02-26T11:32:01.326Z,6.82
2023-02-26T11:33:29.137Z,6.72
2023-02-26T11:34:32.072Z,6.96
2023-02-26T11:35:33.655Z,6.54
2023-02-26T11:36:37.388Z,6.59
2023-02-26T11:37:40.025Z,6.43
2023-02-26T11:38:41.606Z,6.21
2023-02-26T11:39:43.112Z,6.37
2023-02-26T11:40:47.410Z,6.20
2023-02-26T11:41:49.663Z,6.40
2023-02-26T11:42:56.495Z,6.52
2023-02-26T11:44:03.006Z,6.22
2023-02-26T11:45:05.725Z,5.92
2023-02-26T11:46:07.727Z,6.15
2023-02-26T11:47:15.174Z,6.46
2023-02-26T11:48:22.258Z,6.58
2023-02-26T11:49:25.670Z,6.55
2023-02-26T11:50:28.396Z,6.63
2023-02-26T11:51:30.014Z,6.67
2023-02-26T11:52:33.535Z,6.59
2023-02-26T11:53:37.067Z,6.88
2023-02-26T11:54:40.352Z,6.92
2023-02-26T11:55:44.706Z,6.90
2023-02-26T11:56:46.254Z,6.82
2023-02-26T11:57:53.975Z,6.68
2023-02-26T11:58:55.682Z,6.47
2023-02-26T11:59:58.940Z,6.30
2023-02-26T12:01:00.914Z,6.37
2023-02-26T12:02:12.550Z,6.52
2023-02-26T12:03:33.786Z,6.40
2023-02-26T12:04:35.308Z,6.40
2023-02-26T12:05:36.919Z,6.57
2023-02-26T12:06:38.978Z,6.61
2023-02-26T12:07:40.522Z,6.87
2023-02-26T12:08:42.110Z,6.74
2023-02-26T12:09:43.783Z,6.68
2023-02-26T12:11:03.698Z,6.70
2023-02-26T12:12:14.311Z,6.91
2023-02-26T12:13:30.691Z,6.71
2023-02-26T12:14:56.976Z,6.84
2023-02-26T12:16:44.573Z,7.09
2023-02-26T12:18:15.668Z,7.00
2023-02-26T12:19:40.557Z,6.99
2023-02-26T12:20:53.844Z,7.09
2023-02-26T12:22:13.384Z,6.73
2023-02-26T12:23:42.684Z,6.73
2023-02-26T12:24:59.365Z,6.70
2023-02-26T12:26:22.580Z,6.68
2023-02-26T12:27:31.841Z,6.68
2023-02-26T12:28:51.070Z,6.60
2023-02-26T12:30:07.391Z,6.49
2023-02-26T12:31:33.095Z,6.58
2023-02-26T12:33:13.320Z,6.64
2023-02-26T12:34:19.936Z,6.59
2023-02-26T12:35:52.783Z,6.61
2023-02-26T12:37:09.622Z,6.59
2023-02-26T12:38:20.394Z,6.20
2023-02-26T12:39:43.846Z,6.78
2023-02-26T12:40:48.424Z,6.93
2023-02-26T12:42:18.933Z,6.91
2023-02-26T12:43:45.950Z,7.15
2023-02-26T12:44:50.130Z,6.44
2023-02-26T12:46:02.732Z,6.33
2023-02-26T12:47:06.978Z,6.17
2023-02-26T12:48:28.514Z,6.08
2023-02-26T12:49:32.460Z,6.20
2023-02-26T12:50:55.480Z,5.65
2023-02-26T12:52:17.122Z,5.93
2023-02-26T12:53:29.946Z,6.14
2023-02-26T12:54:57.479Z,6.31
2023-02-26T12:56:17.987Z,6.25
2023-02-26T12:57:42.915Z,6.22
2023-02-26T12:59:09.034Z,6.34
2023-02-26T13:00:29.646Z,6.07
2023-02-26T13:02:01.959Z,6.08
2023-02-26T13:03:23.793Z,6.24
2023-02-26T13:05:03.092Z,6.23
2023-02-26T13:06:38.255Z,6.37
2023-02-26T13:07:50.343Z,6.61
2023-02-26T13:08:55.011Z,6.42
2023-02-26T13:10:21.265Z,6.62
2023-02-26T13:11:47.452Z,6.45
2023-02-26T13:13:14.396Z,6.54
2023-02-26T13:14:23.615Z,6.68
2023-02-26T13:15:27.858Z,7.14
2023-02-26T13:16:41.928Z,7.04
2023-02-26T13:18:16.019Z,6.69
2023-02-26T13:19:26.585Z,6.98
2023-02-26T13:20:29.017Z,6.62
2023-02-26T13:21:39.254Z,6.68
2023-02-26T13:22:48.625Z,6.80
2023-02-26T13:23:58.277Z,6.86
2023-02-26T13:25:03.478Z,6.97
2023-02-26T13:26:09.283Z,6.87
2023-02-26T13:27:10.799Z,6.67
2023-02-26T13:28:50.881Z,6.82
2023-02-26T13:30:04.524Z,6.80
2023-02-26T13:31:17.894Z,6.19
2023-02-26T13:32:25.130Z,6.34
2023-02-26T13:33:28.631Z,6.04
2023-02-26T13:34:45.572Z,6.11
2023-02-26T13:35:47.060Z,6.21
2023-02-26T13:36:48.675Z,6.38
2023-02-26T13:37:52.964Z,6.71
2023-02-26T13:39:21.845Z,7.06
2023-02-26T13:40:41.538Z,6.92
2023-02-26T13:41:51.889Z,6.83
2023-02-26T13:43:18.388Z,7.00
2023-02-26T13:44:34.521Z,7.33
2023-02-26T13:46:01.608Z,7.52
2023-02-26T13:47:34.959Z,7.57
2023-02-26T13:48:45.238Z,7.76
2023-02-26T13:50:06.975Z,7.97
2023-02-26T13:51:36.065Z,8.23
2023-02-26T13:52:50.185Z,8.10
2023-02-26T13:54:16.576Z,8.24
2023-02-26T13:55:38.092Z,9.00
2023-02-26T13:56:39.703Z,9.12
2023-02-26T13:57:54.058Z,9.34
2023-02-26T13:59:05.465Z,9.46
2023-02-26T14:00:27.179Z,9.19
2023-02-26T14:01:33.211Z,9.47
2023-02-26T14:02:47.961Z,9.11
2023-02-26T14:03:54.188Z,9.57
2023-02-26T14:04:58.633Z,9.67
2023-02-26T14:06:24.399Z,10.16
2023-02-26T14:07:56.076Z,10.45
2023-02-26T14:08:58.737Z,10.64
2023-02-26T14:10:13.213Z,10.59
2023-02-26T14:11:17.491Z,10.34
2023-02-26T14:12:35.837Z,10.31
2023-02-26T14:13:39.468Z,10.39
2023-02-26T14:14:41.666Z,9.99
2023-02-26T14:16:07.677Z,9.87
2023-02-26T14:17:09.259Z,10.21
2023-02-26T14:18:25.664Z,9.94
2023-02-26T14:19:51.966Z,10.15
2023-02-26T14:20:53.480Z,10.07
2023-02-26T14:21:58.884Z,10.22
2023-02-26T14:23:35.013Z,10.14
2023-02-26T14:24:38.389Z,10.31
2023-02-26T14:25:52.146Z,10.63
2023-02-26T14:27:28.739Z,11.13
2023-02-26T14:28:34.378Z,10.31
2023-02-26T14:29:58.416Z,10.44
2023-02-26T14:30:59.865Z,9.64
2023-02-26T14:32:12.273Z,9.00
2023-02-26T14:33:15.992Z,8.55
2023-02-26T14:34:23.208Z,8.66
2023-02-26T14:35:29.114Z,8.69
2023-02-26T14:36:51.515Z,8.41
2023-02-26T14:37:59.544Z,8.65
2023-02-26T14:39:04.328Z,8.93
2023-02-26T14:40:18.353Z,9.22
2023-02-26T14:41:29.627Z,8.92
2023-02-26T14:42:34.903Z,8.47
2023-02-26T14:43:38.717Z,8.75
2023-02-26T14:44:45.250Z,9.21
2023-02-26T14:45:46.958Z,9.71
2023-02-26T14:46:48.888Z,9.67
2023-02-26T14:47:50.462Z,9.70
2023-02-26T14:48:52.496Z,9.39
2023-02-26T14:49:59.552Z,9.03
2023-02-26T14:51:26.099Z,8.93